sensor_id;sensor_type;location;lat;lon;timestamp;pressure;altitude;pressure_sealevel;temperature;humidity
84271;BME280;74614;50.032;19.566;2024-02-26T00:01:43;97663.73;;;3.74;60.69
84271;BME280;74614;50.032;19.566;2024-02-26T00:04:27;97659.35;;;3.70;60.83
84271;BME280;74614;50.032;19.566;2024-02-26T00:06:28;97662.50;;;3.70;60.92
84271;BME280;74614;50.032;19.566;2024-02-26T00:08:26;97662.93;;;3.69;61.23
84271;BME280;74614;50.032;19.566;2024-02-26T00:10:28;97659.36;;;3.70;61.17
84271;BME280;74614;50.032;19.566;2024-02-26T00:13:26;97663.37;;;3.65;60.49
84271;BME280;74614;50.032;19.566;2024-02-26T00:14:31;97661.94;;;3.71;61.00
84271;BME280;74614;50.032;19.566;2024-02-26T00:16:25;97664.76;;;3.66;61.11
84271;BME280;74614;50.032;19.566;2024-02-26T00:18:25;97659.73;;;3.75;61.02
84271;BME280;74614;50.032;19.566;2024-02-26T00:20:27;97663.16;;;3.75;60.59
84271;BME280;74614;50.032;19.566;2024-02-26T00:22:26;97662.11;;;3.66;61.12
84271;BME280;74614;50.032;19.566;2024-02-26T00:24:26;97659.45;;;3.71;60.66
84271;BME280;74614;50.032;19.566;2024-02-26T00:26:27;97659.86;;;3.78;60.81
84271;BME280;74614;50.032;19.566;2024-02-26T00:28:27;97656.99;;;3.66;61.47
84271;BME280;74614;50.032;19.566;2024-02-26T00:30:30;97657.37;;;3.55;60.86
84271;BME280;74614;50.032;19.566;2024-02-26T00:32:26;97656.15;;;3.43;61.87
84271;BME280;74614;50.032;19.566;2024-02-26T00:34:28;97659.73;;;3.30;61.52
84271;BME280;74614;50.032;19.566;2024-02-26T00:36:26;97656.08;;;3.26;61.85
84271;BME280;74614;50.032;19.566;2024-02-26T00:38:25;97654.69;;;3.18;61.29
84271;BME280;74614;50.032;19.566;2024-02-26T00:40:28;97655.86;;;3.04;62.09
84271;BME280;74614;50.032;19.566;2024-02-26T00:42:28;97651.39;;;2.97;61.81
84271;BME280;74614;50.032;19.566;2024-02-26T00:44:26;97649.34;;;2.97;62.02
84271;BME280;74614;50.032;19.566;2024-02-26T00:46:26;97648.67;;;2.99;62.14
84271;BME280;74614;50.032;19.566;2024-02-26T00:48:28;97648.42;;;2.94;62.10
84271;BME280;74614;50.032;19.566;2024-02-26T00:50:26;97644.87;;;3.01;62.19
84271;BME280;74614;50.032;19.566;2024-02-26T00:52:39;97645.14;;;3.06;61.66
84271;BME280;74614;50.032;19.566;2024-02-26T00:55:30;97648.99;;;3.07;61.81
84271;BME280;74614;50.032;19.566;2024-02-26T00:57:39;97645.00;;;2.99;62.57
84271;BME280;74614;50.032;19.566;2024-02-26T01:00:26;97650.62;;;2.93;61.99
84271;BME280;74614;50.032;19.566;2024-02-26T01:02:28;97650.35;;;2.86;62.04
84271;BME280;74614;50.032;19.566;2024-02-26T01:04:25;97649.10;;;2.82;62.73
84271;BME280;74614;50.032;19.566;2024-02-26T01:06:28;97645.32;;;2.81;62.57
84271;BME280;74614;50.032;19.566;2024-02-26T01:08:26;97641.61;;;2.79;62.64
84271;BME280;74614;50.032;19.566;2024-02-26T01:10:30;97637.98;;;2.77;62.82
84271;BME280;74614;50.032;19.566;2024-02-26T01:12:25;97637.08;;;2.79;63.15
84271;BME280;74614;50.032;19.566;2024-02-26T01:14:26;97635.84;;;2.81;63.97
84271;BME280;74614;50.032;19.566;2024-02-26T01:16:26;97640.41;;;2.83;64.81
84271;BME280;74614;50.032;19.566;2024-02-26T01:18:27;97643.75;;;2.89;64.02
84271;BME280;74614;50.032;19.566;2024-02-26T01:20:26;97643.97;;;2.93;64.06
84271;BME280;74614;50.032;19.566;2024-02-26T01:22:25;97638.82;;;2.97;64.57
84271;BME280;74614;50.032;19.566;2024-02-26T01:24:27;97644.80;;;3.02;63.14
84271;BME280;74614;50.032;19.566;2024-02-26T01:26:25;97641.00;;;2.95;63.20
84271;BME280;74614;50.032;19.566;2024-02-26T01:28:28;97643.96;;;2.86;63.35
84271;BME280;74614;50.032;19.566;2024-02-26T01:30:27;97643.47;;;2.83;63.45
84271;BME280;74614;50.032;19.566;2024-02-26T01:32:26;97642.05;;;2.85;63.12
84271;BME280;74614;50.032;19.566;2024-02-26T01:34:29;97641.18;;;2.88;63.52
84271;BME280;74614;50.032;19.566;2024-02-26T01:36:27;97643.52;;;2.92;63.67
84271;BME280;74614;50.032;19.566;2024-02-26T01:38:26;97643.75;;;3.01;63.68
84271;BME280;74614;50.032;19.566;2024-02-26T01:40:28;97640.51;;;3.06;63.91
84271;BME280;74614;50.032;19.566;2024-02-26T01:42:29;97639.84;;;3.14;63.32
84271;BME280;74614;50.032;19.566;2024-02-26T01:44:26;97641.51;;;3.23;63.10
84271;BME280;74614;50.032;19.566;2024-02-26T01:46:29;97641.46;;;3.23;63.27
84271;BME280;74614;50.032;19.566;2024-02-26T01:48:26;97646.09;;;3.31;63.45
84271;BME280;74614;50.032;19.566;2024-02-26T01:50:26;97643.32;;;3.29;63.10
84271;BME280;74614;50.032;19.566;2024-02-26T01:52:26;97645.73;;;3.35;62.84
84271;BME280;74614;50.032;19.566;2024-02-26T01:54:27;97649.78;;;3.40;62.81
84271;BME280;74614;50.032;19.566;2024-02-26T01:56:28;97646.40;;;3.30;62.77
84271;BME280;74614;50.032;19.566;2024-02-26T01:58:26;97647.69;;;3.18;62.55
84271;BME280;74614;50.032;19.566;2024-02-26T02:00:27;97643.84;;;3.08;62.79
84271;BME280;74614;50.032;19.566;2024-02-26T02:02:27;97643.99;;;2.99;62.86
84271;BME280;74614;50.032;19.566;2024-02-26T02:04:26;97642.23;;;3.06;62.81
84271;BME280;74614;50.032;19.566;2024-02-26T02:06:31;97641.50;;;3.16;62.86
84271;BME280;74614;50.032;19.566;2024-02-26T02:08:28;97640.48;;;3.11;62.46
84271;BME280;74614;50.032;19.566;2024-02-26T02:10:31;97640.29;;;3.10;62.71
84271;BME280;74614;50.032;19.566;2024-02-26T02:12:30;97640.04;;;3.03;62.61
84271;BME280;74614;50.032;19.566;2024-02-26T02:14:26;97639.59;;;2.92;62.98
84271;BME280;74614;50.032;19.566;2024-02-26T02:16:27;97640.34;;;2.85;63.05
84271;BME280;74614;50.032;19.566;2024-02-26T02:18:30;97635.67;;;2.92;63.09
84271;BME280;74614;50.032;19.566;2024-02-26T02:20:26;97640.74;;;2.94;63.03
84271;BME280;74614;50.032;19.566;2024-02-26T02:22:26;97637.85;;;2.95;62.94
84271;BME280;74614;50.032;19.566;2024-02-26T02:24:28;97640.74;;;2.94;62.75
84271;BME280;74614;50.032;19.566;2024-02-26T02:26:29;97639.16;;;2.80;62.84
84271;BME280;74614;50.032;19.566;2024-02-26T02:28:33;97643.38;;;2.56;64.71
84271;BME280;74614;50.032;19.566;2024-02-26T02:30:29;97646.42;;;2.46;64.97
84271;BME280;74614;50.032;19.566;2024-02-26T02:32:26;97649.64;;;2.45;64.36
84271;BME280;74614;50.032;19.566;2024-02-26T02:34:26;97647.62;;;2.46;64.87
84271;BME280;74614;50.032;19.566;2024-02-26T02:36:26;97651.48;;;2.37;63.74
84271;BME280;74614;50.032;19.566;2024-02-26T02:38:25;97651.77;;;2.34;65.16
84271;BME280;74614;50.032;19.566;2024-02-26T02:40:25;97658.51;;;2.35;64.16
84271;BME280;74614;50.032;19.566;2024-02-26T02:42:25;97658.24;;;2.34;65.46
84271;BME280;74614;50.032;19.566;2024-02-26T02:44:27;97665.45;;;2.36;65.00
84271;BME280;74614;50.032;19.566;2024-02-26T02:46:31;97662.27;;;2.39;64.36
84271;BME280;74614;50.032;19.566;2024-02-26T02:48:26;97664.47;;;2.44;64.15
84271;BME280;74614;50.032;19.566;2024-02-26T02:50:30;97658.63;;;2.41;64.54
84271;BME280;74614;50.032;19.566;2024-02-26T02:52:30;97657.21;;;2.43;64.12
84271;BME280;74614;50.032;19.566;2024-02-26T02:54:27;97652.57;;;2.51;63.92
84271;BME280;74614;50.032;19.566;2024-02-26T02:56:32;97650.73;;;2.56;63.78
84271;BME280;74614;50.032;19.566;2024-02-26T02:58:25;97651.70;;;2.60;64.02
84271;BME280;74614;50.032;19.566;2024-02-26T03:00:29;97656.24;;;2.61;63.51
84271;BME280;74614;50.032;19.566;2024-02-26T03:02:30;97656.07;;;2.55;62.87
84271;BME280;74614;50.032;19.566;2024-02-26T03:04:27;97648.37;;;2.45;63.30
84271;BME280;74614;50.032;19.566;2024-02-26T03:06:28;97650.35;;;2.32;64.09
84271;BME280;74614;50.032;19.566;2024-02-26T03:08:32;97645.98;;;2.20;64.39
84271;BME280;74614;50.032;19.566;2024-02-26T03:10:30;97648.82;;;2.14;64.34
84271;BME280;74614;50.032;19.566;2024-02-26T03:12:43;97646.82;;;2.03;63.77
84271;BME280;74614;50.032;19.566;2024-02-26T03:15:25;97649.26;;;2.10;64.41
84271;BME280;74614;50.032;19.566;2024-02-26T03:17:40;97656.49;;;2.27;64.11
84271;BME280;74614;50.032;19.566;2024-02-26T03:20:28;97646.74;;;2.35;63.75
84271;BME280;74614;50.032;19.566;2024-02-26T03:22:26;97639.31;;;2.43;63.69
84271;BME280;74614;50.032;19.566;2024-02-26T03:24:29;97638.43;;;2.41;63.42
84271;BME280;74614;50.032;19.566;2024-02-26T03:26:29;97638.77;;;2.37;63.59
84271;BME280;74614;50.032;19.566;2024-02-26T03:28:28;97637.39;;;2.14;64.23
84271;BME280;74614;50.032;19.566;2024-02-26T03:30:26;97636.57;;;1.97;64.51
84271;BME280;74614;50.032;19.566;2024-02-26T03:32:26;97636.74;;;1.84;65.15
84271;BME280;74614;50.032;19.566;2024-02-26T03:34:28;97636.10;;;1.77;65.97
84271;BME280;74614;50.032;19.566;2024-02-26T03:36:29;97630.91;;;1.73;66.32
84271;BME280;74614;50.032;19.566;2024-02-26T03:38:25;97628.69;;;1.77;67.03
84271;BME280;74614;50.032;19.566;2024-02-26T03:40:29;97621.03;;;1.82;67.48
84271;BME280;74614;50.032;19.566;2024-02-26T03:42:30;97619.22;;;1.82;65.81
84271;BME280;74614;50.032;19.566;2024-02-26T03:44:27;97617.56;;;1.75;65.45
84271;BME280;74614;50.032;19.566;2024-02-26T03:46:27;97616.30;;;1.71;65.65
84271;BME280;74614;50.032;19.566;2024-02-26T03:48:28;97614.76;;;1.67;65.20
84271;BME280;74614;50.032;19.566;2024-02-26T03:50:27;97619.69;;;1.67;65.33
84271;BME280;74614;50.032;19.566;2024-02-26T03:52:26;97614.95;;;1.68;66.75
84271;BME280;74614;50.032;19.566;2024-02-26T03:54:26;97613.84;;;1.72;67.49
84271;BME280;74614;50.032;19.566;2024-02-26T03:56:30;97612.27;;;1.79;66.05
84271;BME280;74614;50.032;19.566;2024-02-26T03:58:26;97609.70;;;1.83;66.00
84271;BME280;74614;50.032;19.566;2024-02-26T04:00:27;97613.97;;;1.79;65.58
84271;BME280;74614;50.032;19.566;2024-02-26T04:02:26;97608.06;;;1.76;65.46
84271;BME280;74614;50.032;19.566;2024-02-26T04:04:34;97606.77;;;1.76;65.82
84271;BME280;74614;50.032;19.566;2024-02-26T04:06:29;97601.84;;;1.76;65.65
84271;BME280;74614;50.032;19.566;2024-02-26T04:08:26;97601.99;;;1.81;66.24
84271;BME280;74614;50.032;19.566;2024-02-26T04:10:25;97599.35;;;1.81;66.11
84271;BME280;74614;50.032;19.566;2024-02-26T04:12:26;97600.21;;;1.85;66.72
84271;BME280;74614;50.032;19.566;2024-02-26T04:14:26;97599.05;;;1.87;65.93
84271;BME280;74614;50.032;19.566;2024-02-26T04:16:27;97597.19;;;1.83;66.06
84271;BME280;74614;50.032;19.566;2024-02-26T04:18:27;97591.42;;;1.81;66.20
84271;BME280;74614;50.032;19.566;2024-02-26T04:20:27;97593.15;;;1.78;65.83
84271;BME280;74614;50.032;19.566;2024-02-26T04:22:26;97590.21;;;1.75;65.68
84271;BME280;74614;50.032;19.566;2024-02-26T04:24:36;97593.30;;;1.81;65.33
84271;BME280;74614;50.032;19.566;2024-02-26T04:26:30;97596.51;;;1.88;64.88
84271;BME280;74614;50.032;19.566;2024-02-26T04:28:27;97594.31;;;1.84;64.83
84271;BME280;74614;50.032;19.566;2024-02-26T04:30:25;97593.70;;;1.87;64.83
84271;BME280;74614;50.032;19.566;2024-02-26T04:32:30;97592.55;;;1.96;64.79
84271;BME280;74614;50.032;19.566;2024-02-26T04:34:25;97592.89;;;1.86;64.42
84271;BME280;74614;50.032;19.566;2024-02-26T04:36:27;97597.01;;;1.70;65.71
84271;BME280;74614;50.032;19.566;2024-02-26T04:38:30;97592.53;;;1.64;65.79
84271;BME280;74614;50.032;19.566;2024-02-26T04:40:33;97590.12;;;1.57;66.21
84271;BME280;74614;50.032;19.566;2024-02-26T04:42:27;97589.30;;;1.51;66.91
84271;BME280;74614;50.032;19.566;2024-02-26T04:44:25;97586.81;;;1.54;66.97
84271;BME280;74614;50.032;19.566;2024-02-26T04:46:28;97585.41;;;1.55;65.98
84271;BME280;74614;50.032;19.566;2024-02-26T04:48:28;97584.56;;;1.56;67.94
84271;BME280;74614;50.032;19.566;2024-02-26T04:50:27;97582.73;;;1.67;69.51
84271;BME280;74614;50.032;19.566;2024-02-26T04:52:27;97583.81;;;1.79;68.35
84271;BME280;74614;50.032;19.566;2024-02-26T04:54:30;97579.88;;;1.87;70.13
84271;BME280;74614;50.032;19.566;2024-02-26T04:56:25;97577.70;;;1.99;68.34
84271;BME280;74614;50.032;19.566;2024-02-26T04:58:26;97577.14;;;2.10;70.77
84271;BME280;74614;50.032;19.566;2024-02-26T05:00:25;97576.57;;;2.20;69.00
84271;BME280;74614;50.032;19.566;2024-02-26T05:02:26;97576.03;;;2.15;68.13
84271;BME280;74614;50.032;19.566;2024-02-26T05:04:25;97576.97;;;2.11;67.48
84271;BME280;74614;50.032;19.566;2024-02-26T05:06:27;97579.12;;;2.05;67.48
84271;BME280;74614;50.032;19.566;2024-02-26T05:08:26;97581.85;;;1.97;66.90
84271;BME280;74614;50.032;19.566;2024-02-26T05:10:26;97585.52;;;1.92;66.50
84271;BME280;74614;50.032;19.566;2024-02-26T05:12:33;97583.60;;;1.90;66.00
84271;BME280;74614;50.032;19.566;2024-02-26T05:14:26;97586.72;;;1.84;65.80
84271;BME280;74614;50.032;19.566;2024-02-26T05:16:34;97585.66;;;1.78;65.75
84271;BME280;74614;50.032;19.566;2024-02-26T05:18:28;97588.71;;;1.75;65.76
84271;BME280;74614;50.032;19.566;2024-02-26T05:20:28;97583.50;;;1.71;65.65
84271;BME280;74614;50.032;19.566;2024-02-26T05:22:28;97590.85;;;1.68;65.36
84271;BME280;74614;50.032;19.566;2024-02-26T05:24:30;97588.63;;;1.59;65.56
84271;BME280;74614;50.032;19.566;2024-02-26T05:26:27;97590.35;;;1.65;65.50
84271;BME280;74614;50.032;19.566;2024-02-26T05:28:27;97597.11;;;1.63;65.61
84271;BME280;74614;50.032;19.566;2024-02-26T05:30:25;97594.87;;;1.65;68.00
84271;BME280;74614;50.032;19.566;2024-02-26T05:32:27;97594.91;;;1.64;67.59
84271;BME280;74614;50.032;19.566;2024-02-26T05:34:27;97594.85;;;1.64;67.79
84271;BME280;74614;50.032;19.566;2024-02-26T05:36:28;97592.80;;;1.68;68.40
84271;BME280;74614;50.032;19.566;2024-02-26T05:38:25;97595.98;;;1.65;67.85
84271;BME280;74614;50.032;19.566;2024-02-26T05:40:27;97598.67;;;1.51;67.04
84271;BME280;74614;50.032;19.566;2024-02-26T05:42:26;97602.59;;;1.55;66.72
84271;BME280;74614;50.032;19.566;2024-02-26T05:44:28;97603.77;;;1.54;66.38
84271;BME280;74614;50.032;19.566;2024-02-26T05:46:27;97604.08;;;1.57;66.26
84271;BME280;74614;50.032;19.566;2024-02-26T05:48:28;97608.45;;;1.58;66.11
84271;BME280;74614;50.032;19.566;2024-02-26T05:50:29;97609.30;;;1.58;66.00
84271;BME280;74614;50.032;19.566;2024-02-26T05:52:26;97607.10;;;1.55;65.83
84271;BME280;74614;50.032;19.566;2024-02-26T05:54:26;97607.38;;;1.56;65.99
84271;BME280;74614;50.032;19.566;2024-02-26T05:56:26;97605.99;;;1.51;66.10
84271;BME280;74614;50.032;19.566;2024-02-26T05:58:27;97609.62;;;1.53;65.91
84271;BME280;74614;50.032;19.566;2024-02-26T06:00:29;97608.87;;;1.53;65.90
84271;BME280;74614;50.032;19.566;2024-02-26T06:02:28;97600.85;;;1.53;65.76
84271;BME280;74614;50.032;19.566;2024-02-26T06:04:26;97601.74;;;1.59;65.83
84271;BME280;74614;50.032;19.566;2024-02-26T06:06:31;97602.20;;;1.60;65.99
84271;BME280;74614;50.032;19.566;2024-02-26T06:08:27;97605.34;;;1.56;66.50
84271;BME280;74614;50.032;19.566;2024-02-26T06:10:28;97605.71;;;1.57;66.57
84271;BME280;74614;50.032;19.566;2024-02-26T06:12:37;97609.31;;;1.67;66.75
84271;BME280;74614;50.032;19.566;2024-02-26T06:15:27;97605.82;;;1.80;70.72
84271;BME280;74614;50.032;19.566;2024-02-26T06:17:34;97609.62;;;2.05;71.17
84271;BME280;74614;50.032;19.566;2024-02-26T06:19:26;97612.75;;;2.28;71.85
84271;BME280;74614;50.032;19.566;2024-02-26T06:21:32;97616.35;;;2.57;70.67
84271;BME280;74614;50.032;19.566;2024-02-26T06:23:26;97614.30;;;2.84;70.88
84271;BME280;74614;50.032;19.566;2024-02-26T06:25:38;97619.48;;;3.04;69.12
84271;BME280;74614;50.032;19.566;2024-02-26T06:28:29;97621.56;;;3.13;67.67
84271;BME280;74614;50.032;19.566;2024-02-26T06:30:28;97621.73;;;2.91;67.10
84271;BME280;74614;50.032;19.566;2024-02-26T06:32:30;97630.37;;;2.85;66.27
84271;BME280;74614;50.032;19.566;2024-02-26T06:34:28;97627.01;;;2.79;67.33
84271;BME280;74614;50.032;19.566;2024-02-26T06:36:27;97630.69;;;2.64;66.96
84271;BME280;74614;50.032;19.566;2024-02-26T06:38:26;97631.83;;;2.40;66.63
84271;BME280;74614;50.032;19.566;2024-02-26T06:40:28;97634.44;;;2.34;66.97
84271;BME280;74614;50.032;19.566;2024-02-26T06:42:27;97630.94;;;2.43;67.02
84271;BME280;74614;50.032;19.566;2024-02-26T06:44:29;97626.41;;;2.68;66.77
84271;BME280;74614;50.032;19.566;2024-02-26T06:46:28;97623.45;;;3.01;66.30
84271;BME280;74614;50.032;19.566;2024-02-26T06:48:28;97626.85;;;3.13;66.27
84271;BME280;74614;50.032;19.566;2024-02-26T06:50:34;97630.55;;;3.07;66.36
84271;BME280;74614;50.032;19.566;2024-02-26T06:52:26;97631.74;;;3.14;66.29
84271;BME280;74614;50.032;19.566;2024-02-26T06:54:27;97632.86;;;3.38;66.27
84271;BME280;74614;50.032;19.566;2024-02-26T06:56:27;97630.25;;;3.61;66.35
84271;BME280;74614;50.032;19.566;2024-02-26T06:58:27;97625.53;;;3.99;66.19
84271;BME280;74614;50.032;19.566;2024-02-26T07:00:27;97636.07;;;4.51;65.73
84271;BME280;74614;50.032;19.566;2024-02-26T07:02:27;97642.37;;;4.89;65.59
84271;BME280;74614;50.032;19.566;2024-02-26T07:04:29;97632.30;;;5.29;65.26
84271;BME280;74614;50.032;19.566;2024-02-26T07:06:26;97631.30;;;5.09;64.72
84271;BME280;74614;50.032;19.566;2024-02-26T07:08:29;97632.92;;;5.17;65.26
84271;BME280;74614;50.032;19.566;2024-02-26T07:10:30;97633.35;;;5.53;65.01
84271;BME280;74614;50.032;19.566;2024-02-26T07:12:30;97634.03;;;5.88;64.44
84271;BME280;74614;50.032;19.566;2024-02-26T07:14:26;97633.53;;;6.13;64.12
84271;BME280;74614;50.032;19.566;2024-02-26T07:16:29;97630.77;;;6.42;64.12
84271;BME280;74614;50.032;19.566;2024-02-26T07:18:27;97637.60;;;6.76;63.43
84271;BME280;74614;50.032;19.566;2024-02-26T07:20:26;97637.66;;;7.00;62.43
84271;BME280;74614;50.032;19.566;2024-02-26T07:22:26;97629.53;;;7.32;61.82
84271;BME280;74614;50.032;19.566;2024-02-26T07:24:28;97622.32;;;7.79;62.32
84271;BME280;74614;50.032;19.566;2024-02-26T07:26:31;97622.56;;;8.06;61.75
84271;BME280;74614;50.032;19.566;2024-02-26T07:28:26;97622.14;;;8.16;61.15
84271;BME280;74614;50.032;19.566;2024-02-26T07:30:32;97632.42;;;8.28;59.82
84271;BME280;74614;50.032;19.566;2024-02-26T07:32:29;97632.63;;;8.27;59.70
84271;BME280;74614;50.032;19.566;2024-02-26T07:34:39;97609.59;;;8.11;60.18
84271;BME280;74614;50.032;19.566;2024-02-26T07:37:35;97620.17;;;8.35;60.77
84271;BME280;74614;50.032;19.566;2024-02-26T07:40:29;97625.76;;;8.35;60.38
84271;BME280;74614;50.032;19.566;2024-02-26T07:42:27;97616.88;;;8.37;59.91
84271;BME280;74614;50.032;19.566;2024-02-26T07:44:31;97623.85;;;8.40;59.30
84271;BME280;74614;50.032;19.566;2024-02-26T07:46:29;97626.76;;;8.54;58.76
84271;BME280;74614;50.032;19.566;2024-02-26T07:48:25;97614.72;;;8.75;58.44
84271;BME280;74614;50.032;19.566;2024-02-26T07:50:28;97611.38;;;9.01;59.56
84271;BME280;74614;50.032;19.566;2024-02-26T07:52:27;97622.83;;;9.27;57.10
84271;BME280;74614;50.032;19.566;2024-02-26T07:54:50;97612.80;;;9.60;57.12
84271;BME280;74614;50.032;19.566;2024-02-26T07:57:34;97618.38;;;9.33;55.59
84271;BME280;74614;50.032;19.566;2024-02-26T08:00:27;97623.30;;;9.32;56.98
84271;BME280;74614;50.032;19.566;2024-02-26T08:03:47;97620.52;;;9.18;57.42
84271;BME280;74614;50.032;19.566;2024-02-26T08:07:19;97618.69;;;8.82;57.67
84271;BME280;74614;50.032;19.566;2024-02-26T08:09:27;97619.60;;;8.95;57.82
84271;BME280;74614;50.032;19.566;2024-02-26T08:12:26;97617.08;;;8.71;58.34
84271;BME280;74614;50.032;19.566;2024-02-26T08:14:24;97618.56;;;8.66;58.46
84271;BME280;74614;50.032;19.566;2024-02-26T08:17:30;97629.33;;;8.66;58.49
84271;BME280;74614;50.032;19.566;2024-02-26T08:17:31;97629.33;;;8.66;58.49
84271;BME280;74614;50.032;19.566;2024-02-26T08:19:24;97620.46;;;8.56;58.47
84271;BME280;74614;50.032;19.566;2024-02-26T08:23:18;97630.41;;;8.48;59.38
84271;BME280;74614;50.032;19.566;2024-02-26T08:26:29;97629.88;;;8.49;59.56
84271;BME280;74614;50.032;19.566;2024-02-26T08:28:58;97622.91;;;8.49;59.00
84271;BME280;74614;50.032;19.566;2024-02-26T08:30:53;97627.80;;;8.61;59.37
84271;BME280;74614;50.032;19.566;2024-02-26T08:35:17;97640.31;;;8.92;59.08
84271;BME280;74614;50.032;19.566;2024-02-26T08:42:57;97648.61;;;8.69;58.79
84271;BME280;74614;50.032;19.566;2024-02-26T08:54:33;97623.83;;;8.63;59.69
84271;BME280;74614;50.032;19.566;2024-02-26T09:00:29;97626.41;;;8.64;60.04
84271;BME280;74614;50.032;19.566;2024-02-26T09:05:36;97634.00;;;8.42;60.68
84271;BME280;74614;50.032;19.566;2024-02-26T09:20:02;97633.41;;;8.85;60.36
84271;BME280;74614;50.032;19.566;2024-02-26T09:25:10;97631.29;;;9.20;60.11
84271;BME280;74614;50.032;19.566;2024-02-26T09:40:08;97611.91;;;9.77;58.52
84271;BME280;74614;50.032;19.566;2024-02-26T09:52:19;97599.38;;;10.13;58.05
84271;BME280;74614;50.032;19.566;2024-02-26T09:56:50;97607.50;;;10.24;58.62
84271;BME280;74614;50.032;19.566;2024-02-26T10:02:01;97608.22;;;10.53;57.35
84271;BME280;74614;50.032;19.566;2024-02-26T10:09:32;97614.66;;;10.50;57.16
84271;BME280;74614;50.032;19.566;2024-02-26T10:14:38;97616.83;;;10.59;57.11
84271;BME280;74614;50.032;19.566;2024-02-26T10:18:25;97618.27;;;10.71;57.03
84271;BME280;74614;50.032;19.566;2024-02-26T10:20:28;97614.42;;;10.75;57.01
84271;BME280;74614;50.032;19.566;2024-02-26T10:20:29;97614.42;;;10.75;57.01
84271;BME280;74614;50.032;19.566;2024-02-26T10:23:07;97610.96;;;10.95;57.81
84271;BME280;74614;50.032;19.566;2024-02-26T10:23:07;97610.96;;;10.95;57.81
84271;BME280;74614;50.032;19.566;2024-02-26T10:26:31;97615.47;;;11.09;56.99
84271;BME280;74614;50.032;19.566;2024-02-26T10:29:20;97614.21;;;11.34;57.24
84271;BME280;74614;50.032;19.566;2024-02-26T10:34:20;97592.09;;;11.52;55.37
84271;BME280;74614;50.032;19.566;2024-02-26T10:40:16;97600.00;;;11.56;55.82
84271;BME280;74614;50.032;19.566;2024-02-26T10:45:28;97598.96;;;11.81;55.67
84271;BME280;74614;50.032;19.566;2024-02-26T10:49:35;97600.03;;;11.76;56.23
84271;BME280;74614;50.032;19.566;2024-02-26T10:51:44;97599.72;;;11.83;56.24
84271;BME280;74614;50.032;19.566;2024-02-26T10:54:20;97597.35;;;11.92;56.37
84271;BME280;74614;50.032;19.566;2024-02-26T10:56:29;97599.55;;;11.94;56.19
84271;BME280;74614;50.032;19.566;2024-02-26T11:01:12;97595.95;;;11.88;55.37
84271;BME280;74614;50.032;19.566;2024-02-26T11:03:28;97599.11;;;12.06;56.11
84271;BME280;74614;50.032;19.566;2024-02-26T11:13:59;97600.46;;;12.38;55.56
84271;BME280;74614;50.032;19.566;2024-02-26T11:14:01;97599.63;;;12.30;55.09
84271;BME280;74614;50.032;19.566;2024-02-26T11:23:59;97598.02;;;12.19;55.70
84271;BME280;74614;50.032;19.566;2024-02-26T11:27:09;97589.53;;;12.13;56.10
84271;BME280;74614;50.032;19.566;2024-02-26T11:30:26;97589.53;;;12.28;55.39
84271;BME280;74614;50.032;19.566;2024-02-26T11:33:30;97584.36;;;12.33;55.03
84271;BME280;74614;50.032;19.566;2024-02-26T11:37:18;97585.48;;;12.61;55.29
84271;BME280;74614;50.032;19.566;2024-02-26T11:40:20;97579.06;;;12.71;55.59
84271;BME280;74614;50.032;19.566;2024-02-26T11:44:08;97582.69;;;12.68;54.44
84271;BME280;74614;50.032;19.566;2024-02-26T11:46:26;97582.57;;;12.73;54.28
84271;BME280;74614;50.032;19.566;2024-02-26T11:50:54;97578.80;;;12.85;54.75
84271;BME280;74614;50.032;19.566;2024-02-26T11:54:48;97581.60;;;12.81;55.02
84271;BME280;74614;50.032;19.566;2024-02-26T11:54:48;97580.47;;;12.77;54.73
84271;BME280;74614;50.032;19.566;2024-02-26T11:57:26;97577.01;;;12.90;54.91
84271;BME280;74614;50.032;19.566;2024-02-26T12:02:40;97578.04;;;13.00;55.13
84271;BME280;74614;50.032;19.566;2024-02-26T12:07:14;97579.92;;;12.79;54.92
84271;BME280;74614;50.032;19.566;2024-02-26T12:07:15;-3200.00;;;0.00;0.00
84271;BME280;74614;50.032;19.566;2024-02-26T12:11:49;97576.18;;;12.81;55.75
84271;BME280;74614;50.032;19.566;2024-02-26T12:14:39;97578.44;;;12.79;55.07
84271;BME280;74614;50.032;19.566;2024-02-26T12:16:42;97578.53;;;12.89;55.19
84271;BME280;74614;50.032;19.566;2024-02-26T12:20:09;97585.01;;;12.82;55.64
84271;BME280;74614;50.032;19.566;2024-02-26T12:22:19;97579.70;;;12.77;55.12
84271;BME280;74614;50.032;19.566;2024-02-26T12:24:59;97575.46;;;12.83;55.39
84271;BME280;74614;50.032;19.566;2024-02-26T12:29:12;97584.07;;;12.85;55.15
84271;BME280;74614;50.032;19.566;2024-02-26T12:31:12;97574.75;;;12.90;55.32
84271;BME280;74614;50.032;19.566;2024-02-26T12:33:25;97568.52;;;12.97;55.27
84271;BME280;74614;50.032;19.566;2024-02-26T12:35:26;97567.64;;;13.07;55.35
84271;BME280;74614;50.032;19.566;2024-02-26T12:42:14;97569.07;;;13.37;54.91
84271;BME280;74614;50.032;19.566;2024-02-26T12:44:14;97565.93;;;13.50;54.44
84271;BME280;74614;50.032;19.566;2024-02-26T12:47:55;97566.81;;;13.56;54.68
84271;BME280;74614;50.032;19.566;2024-02-26T12:47:59;97566.81;;;13.56;54.68
84271;BME280;74614;50.032;19.566;2024-02-26T12:49:59;-3200.00;;;0.00;0.00
84271;BME280;74614;50.032;19.566;2024-02-26T12:50:03;97571.67;;;13.66;54.64
84271;BME280;74614;50.032;19.566;2024-02-26T12:52:23;97574.34;;;13.66;53.12
84271;BME280;74614;50.032;19.566;2024-02-26T12:55:20;97575.34;;;13.68;54.09
84271;BME280;74614;50.032;19.566;2024-02-26T12:58:32;97571.47;;;13.69;53.95
84271;BME280;74614;50.032;19.566;2024-02-26T13:00:44;97569.99;;;13.84;54.53
84271;BME280;74614;50.032;19.566;2024-02-26T13:03:22;97564.94;;;13.94;53.05
84271;BME280;74614;50.032;19.566;2024-02-26T13:06:03;97565.00;;;14.06;53.48
84271;BME280;74614;50.032;19.566;2024-02-26T13:11:44;97573.22;;;14.15;53.99
84271;BME280;74614;50.032;19.566;2024-02-26T13:14:30;97574.62;;;14.17;53.67